Time;durP1;ratioP1;P1;durP2;ratioP2;P2;SDS_P1;SDS_P2;PMS_P1;PMS_P2;Temp;Humidity;BMP_temperature;BMP_pressure;BME280_temperature;BME280_humidity;BME280_pressure;Samples;Min_cycle;Max_cycle;Signal;HPM_P1;HPM_P2
2023/10/24 00:01:38;;;;;;;4.00;3.37;;;14.70;99.90;;;;;;5033427;28;20498;-89
2023/10/24 00:04:38;;;;;;;5.60;3.20;;;14.70;99.90;;;;;;5033950;28;20504;-88
2023/10/24 00:07:42;;;;;;;4.70;4.20;;;14.70;99.90;;;;;;5031767;28;20448;-88
2023/10/24 00:10:36;;;;;;;3.33;2.87;;;14.70;99.90;;;;;;5031218;28;20481;-89
2023/10/24 00:14:13;;;;;;;4.20;2.80;;;14.70;99.90;;;;;;5027395;28;20508;-88
2023/10/24 00:16:57;;;;;;;3.17;2.97;;;14.70;99.90;;;;;;5026824;28;20457;-88
2023/10/24 00:19:45;;;;;;;4.13;3.57;;;14.60;99.90;;;;;;5045540;28;20457;-88
2023/10/24 00:22:22;;;;;;;5.00;3.00;;;14.70;99.90;;;;;;5039750;28;20551;-87
2023/10/24 00:25:35;;;;;;;;;;;;;;;;;;;;;
2023/10/24 00:28:40;;;;;;;4.60;3.30;;;14.60;99.90;;;;;;5050733;28;20448;-89
2023/10/24 00:31:52;;;;;;;3.70;3.10;;;14.60;99.90;;;;;;5054490;28;20490;-88
2023/10/24 00:37:58;;;;;;;4.90;3.00;;;14.50;99.90;;;;;;5028625;28;20460;-88
2023/10/24 00:40:37;;;;;;;3.90;3.50;;;14.50;99.90;;;;;;5039184;28;20519;-87
2023/10/24 00:43:27;;;;;;;5.90;3.63;;;14.60;99.90;;;;;;5053896;28;20428;-87
2023/10/24 00:45:59;;;;;;;4.47;3.07;;;14.40;99.90;;;;;;5075250;28;20447;-90
2023/10/24 00:48:34;;;;;;;3.50;3.00;;;14.40;99.90;;;;;;5050834;28;20448;-89
2023/10/24 00:51:10;;;;;;;3.90;3.57;;;14.50;99.90;;;;;;5040485;28;20468;-88
2023/10/24 00:53:47;;;;;;;3.70;3.30;;;14.50;99.90;;;;;;5039051;28;20776;-88
2023/10/24 00:56:48;;;;;;;3.93;3.57;;;14.50;99.90;;;;;;5030240;28;20461;-89
2023/10/24 00:59:28;;;;;;;9.17;3.80;;;14.40;99.90;;;;;;5039813;28;20466;-87
2023/10/24 01:05:34;;;;;;;4.73;3.10;;;14.40;99.90;;;;;;5051032;28;20488;-88
2023/10/24 01:08:24;;;;;;;4.30;3.50;;;14.40;99.90;;;;;;5039852;28;20527;-88
2023/10/24 01:11:06;;;;;;;3.00;2.70;;;14.40;99.90;;;;;;5030824;28;20484;-89
2023/10/24 01:14:01;;;;;;;2.80;2.60;;;14.40;99.90;;;;;;5015310;28;20940;-88
2023/10/24 01:17:29;;;;;;;4.00;3.60;;;14.40;99.90;;;;;;4971991;28;20478;-87
2023/10/24 01:20:21;;;;;;;3.60;3.00;;;14.40;99.90;;;;;;5037557;28;20455;-88
2023/10/24 01:26:42;;;;;;;3.00;2.67;;;14.30;99.90;;;;;;5010677;28;20458;-89
2023/10/24 01:29:37;;;;;;;4.10;3.00;;;14.40;99.90;;;;;;5017608;28;20468;-89
2023/10/24 01:32:33;;;;;;;2.93;2.73;;;14.40;99.90;;;;;;5023714;28;20543;-89
2023/10/24 01:35:36;;;;;;;5.80;2.73;;;14.10;99.90;;;;;;5026542;28;20693;-89
2023/10/24 01:38:32;;;;;;;3.27;2.50;;;14.30;99.90;;;;;;5043691;28;20455;-89
2023/10/24 01:41:37;;;;;;;2.50;2.30;;;14.30;99.90;;;;;;5034511;28;20567;-90
2023/10/24 01:44:11;;;;;;;2.50;2.30;;;14.40;99.90;;;;;;5040394;28;20467;-89
2023/10/24 01:46:44;;;;;;;4.13;3.20;;;14.50;99.90;;;;;;5042910;28;20541;-89
2023/10/24 01:49:33;;;;;;;3.33;2.60;;;14.60;99.90;;;;;;5038644;28;20466;-88
2023/10/24 01:52:27;;;;;;;4.40;2.40;;;14.60;99.90;;;;;;5036852;28;20463;-88
2023/10/24 01:55:25;;;;;;;2.07;1.93;;;14.50;99.90;;;;;;5028857;28;20527;-88
2023/10/24 01:58:06;;;;;;;3.80;2.77;;;14.60;99.90;;;;;;5033550;28;20468;-91
2023/10/24 02:00:57;;;;;;;4.13;2.33;;;14.60;99.90;;;;;;5042657;28;20441;-88
2023/10/24 02:04:00;;;;;;;4.37;2.30;;;14.60;99.90;;;;;;5015495;28;20444;-89
2023/10/24 02:07:02;;;;;;;1.90;1.70;;;14.60;99.90;;;;;;5036287;28;20445;-89
2023/10/24 02:10:00;;;;;;;1.83;1.73;;;14.70;99.90;;;;;;5022696;28;20445;-90
2023/10/24 02:13:06;;;;;;;2.33;2.23;;;14.70;99.90;;;;;;5040203;28;20473;-88
2023/10/24 02:16:50;;;;;;;;;;;;;;;;;;;;;
2023/10/24 02:19:54;;;;;;;3.43;2.07;;;14.60;99.90;;;;;;5000992;28;20498;-89
2023/10/24 02:27:19;;;;;;;;;;;;;;;;;;;;;
2023/10/24 02:30:47;;;;;;;;;;;;;;;;;;;;;
2023/10/24 02:33:40;;;;;;;3.20;2.20;;;14.80;99.90;;;;;;4952038;29;20480;-89
2023/10/24 02:36:45;;;;;;;2.03;1.70;;;14.90;99.90;;;;;;4950494;28;20451;-88
2023/10/24 02:42:47;;;;;;;2.20;1.53;;;14.70;99.90;;;;;;4922241;29;20455;-88
2023/10/24 02:49:17;;;;;;;2.20;1.40;;;15.00;99.90;;;;;;4853669;29;20473;-88
2023/10/24 02:52:11;;;;;;;1.90;1.70;;;15.00;99.90;;;;;;4868429;29;21090;-88
2023/10/24 02:55:13;;;;;;;3.10;1.50;;;15.10;99.90;;;;;;4920209;29;20549;-88
2023/10/24 02:57:59;;;;;;;3.03;1.60;;;15.00;99.90;;;;;;4903721;29;20522;-88
2023/10/24 03:10:41;;;;;;;2.23;1.57;;;15.10;99.90;;;;;;4920605;29;20958;-89
2023/10/24 03:14:04;;;;;;;1.67;1.40;;;15.10;99.90;;;;;;4901721;29;20455;-89
2023/10/24 03:17:29;;;;;;;;;;;;;;;;;;;;;
2023/10/24 03:20:07;;;;;;;2.53;1.60;;;15.20;99.90;;;;;;4958042;28;20806;-88
2023/10/24 03:23:33;;;;;;;2.23;1.50;;;14.90;99.90;;;;;;5005329;28;20598;-88
2023/10/24 03:26:40;;;;;;;1.60;1.20;;;15.10;99.90;;;;;;5024280;28;20499;-88
2023/10/24 03:29:58;;;;;;;1.87;1.50;;;15.10;99.90;;;;;;4988224;28;20469;-90
2023/10/24 03:32:44;;;;;;;1.87;1.43;;;15.20;99.90;;;;;;5013924;28;20618;-90
2023/10/24 03:35:48;;;;;;;1.07;1.07;;;15.00;99.90;;;;;;5025710;28;20452;-89
2023/10/24 03:42:38;;;;;;;1.10;1.00;;;15.10;99.90;;;;;;5028868;28;20472;-88
2023/10/24 03:46:16;;;;;;;2.00;1.23;;;15.00;99.90;;;;;;5025532;28;20516;-90
2023/10/24 03:49:29;;;;;;;2.53;2.37;;;15.10;99.90;;;;;;5037962;28;20431;-89
2023/10/24 04:00:28;;;;;;;5.23;1.20;;;15.10;99.90;;;;;;4933030;29;20763;-88
2023/10/24 04:03:37;;;;;;;3.03;1.33;;;14.90;99.90;;;;;;4928921;29;20499;-88
2023/10/24 04:06:46;;;;;;;1.40;1.30;;;15.00;99.90;;;;;;4915904;29;20513;-89
2023/10/24 04:10:05;;;;;;;;;;;;;;;;;;;;;
2023/10/24 04:20:36;;;;;;;1.13;1.00;;;15.10;99.90;;;;;;5010493;28;20443;-88
2023/10/24 04:27:48;;;;;;;2.40;1.10;;;15.00;99.90;;;;;;4970329;28;20455;-88
2023/10/24 04:31:10;;;;;;;1.33;0.93;;;15.00;99.90;;;;;;4973086;28;20490;-88
2023/10/24 04:37:46;;;;;;;;;;;;;;;;;;;;;
2023/10/24 04:43:12;;;;;;;1.30;1.03;;;15.10;99.90;;;;;;5152602;22;20501;-91
2023/10/24 04:46:40;;;;;;;1.30;1.10;;;15.10;99.90;;;;;;5092436;28;20492;-89
2023/10/24 04:57:23;;;;;;;1.10;0.70;;;15.10;99.90;;;;;;5090789;28;20459;-89
2023/10/24 05:00:44;;;;;;;0.73;0.73;;;15.00;99.90;;;;;;5078842;28;20567;-89
2023/10/24 05:03:50;;;;;;;0.93;0.90;;;15.00;99.90;;;;;;5060358;28;20451;-89
2023/10/24 05:10:23;;;;;;;2.47;0.90;;;15.00;99.90;;;;;;5092302;28;20451;-88
2023/10/24 05:13:23;;;;;;;0.70;0.70;;;14.90;99.90;;;;;;5072284;22;20517;-89
2023/10/24 05:17:46;;;;;;;0.60;0.60;;;14.60;99.90;;;;;;5018804;28;20439;-90
2023/10/24 05:20:41;;;;;;;1.33;0.90;;;14.90;99.90;;;;;;5008652;28;20455;-89
2023/10/24 05:27:02;;;;;;;1.47;0.90;;;14.90;99.90;;;;;;5043312;28;20477;-88
2023/10/24 05:31:54;;;;;;;;;;;;;;;;;;;;;
2023/10/24 05:38:41;;;;;;;1.40;1.30;;;14.70;99.90;;;;;;4981872;28;20451;-89
2023/10/24 05:41:55;;;;;;;1.40;1.23;;;14.80;99.90;;;;;;4986400;28;20489;-89
2023/10/24 05:52:31;;;;;;;1.87;1.50;;;15.10;99.90;;;;;;4954160;29;20464;-87
2023/10/24 05:55:33;;;;;;;1.00;1.00;;;15.10;99.90;;;;;;4987277;28;20469;-89
2023/10/24 05:58:33;;;;;;;3.83;1.17;;;15.00;99.90;;;;;;5015631;28;20453;-87
2023/10/24 06:01:38;;;;;;;1.37;0.90;;;14.80;99.90;;;;;;5022254;28;20524;-88
2023/10/24 06:04:54;;;;;;;1.63;0.90;;;15.00;99.90;;;;;;4995349;28;20445;-88
2023/10/24 06:08:25;;;;;;;1.67;1.20;;;14.70;99.90;;;;;;5022552;28;20498;-86
2023/10/24 06:11:20;;;;;;;1.07;1.00;;;14.70;99.90;;;;;;5010558;28;20540;-88
2023/10/24 06:14:48;;;;;;;0.60;0.60;;;14.80;99.90;;;;;;4947901;29;20536;-88
2023/10/24 06:22:16;;;;;;;;;;;;;;;;;;;;;
2023/10/24 06:25:39;;;;;;;1.00;0.90;;;14.80;99.90;;;;;;4948676;29;20642;-88
2023/10/24 06:28:53;;;;;;;;;;;;;;;;;;;;;
2023/10/24 11:04:43;;;;;;;2.03;1.13;;;15.80;99.90;;;;;;5035054;28;20448;-88
2023/10/24 11:07:47;;;;;;;1.40;1.03;;;15.50;99.90;;;;;;5031522;28;20498;-88
2023/10/24 11:11:39;;;;;;;;;;;;;;;;;;;;;
2023/10/24 11:14:34;;;;;;;2.37;1.40;;;15.80;99.90;;;;;;5029827;28;20492;-88
2023/10/24 11:21:40;;;;;;;2.30;1.43;;;15.60;99.90;;;;;;5037160;22;20488;-89
2023/10/24 11:25:04;;;;;;;1.33;1.23;;;15.50;99.90;;;;;;4918569;29;20498;-89
2023/10/24 12:24:20;;;;;;;2.63;2.10;;;14.90;99.90;;;;;;4959440;28;20901;-88
2023/10/24 12:27:57;;;;;;;;;;;;;;;;;;;;;
2023/10/24 15:02:46;;;;;;;1.20;1.00;;;15.60;99.90;;;;;;4931292;28;20527;-87
2023/10/24 16:34:48;;;;;;;;;;;;;;;;;;;;;
2023/10/24 19:55:53;;;;;;;4.17;3.77;;;13.30;99.90;;;;;;4955806;28;20459;-86
2023/10/24 19:59:57;;;;;;;4.53;3.90;;;13.40;99.90;;;;;;4913623;29;20531;-88
2023/10/24 20:04:18;;;;;;;;;;;;;;;;;;;;;
2023/10/24 20:07:51;;;;;;;5.23;4.20;;;13.20;99.90;;;;;;4815476;29;20496;-88
2023/10/24 22:10:31;;;;;;;4.00;2.30;;;12.60;99.90;;;;;;5006000;28;20481;-86
